createdAt,value
2017-11-09T00:01:12.221Z,46.00
2017-11-09T00:06:43.167Z,50.03
2017-11-09T00:09:11.448Z,49.10
2017-11-09T00:11:39.749Z,51.60
2017-11-09T00:14:08.081Z,49.57
2017-11-09T00:16:37.505Z,49.90
2017-11-09T00:19:05.787Z,48.00
2017-11-09T00:21:34.922Z,50.07
2017-11-09T00:24:03.980Z,45.47
2017-11-09T00:26:33.399Z,46.47
2017-11-09T00:29:02.504Z,49.07
2017-11-09T00:31:31.559Z,42.97
2017-11-09T00:33:59.852Z,45.37
2017-11-09T00:36:28.203Z,46.17
2017-11-09T00:38:56.499Z,53.50
2017-11-09T00:41:24.796Z,50.40
2017-11-09T00:43:54.284Z,49.30
2017-11-09T00:46:24.079Z,47.50
2017-11-09T00:48:52.386Z,46.97
2017-11-09T00:51:20.744Z,48.53
2017-11-09T00:53:49.035Z,49.40
2017-11-09T00:56:18.822Z,48.40
2017-11-09T00:58:47.151Z,49.83
2017-11-09T01:01:15.445Z,46.00
2017-11-09T01:03:43.741Z,49.13
2017-11-09T01:06:12.084Z,50.80
2017-11-09T01:08:40.379Z,49.37
2017-11-09T01:11:09.436Z,52.30
2017-11-09T01:13:37.803Z,52.43
2017-11-09T01:16:06.866Z,51.13
2017-11-09T01:18:35.553Z,51.20
2017-11-09T01:21:03.901Z,51.90
2017-11-09T01:23:32.188Z,51.37
2017-11-09T01:26:00.903Z,50.67
2017-11-09T01:28:30.378Z,51.43
2017-11-09T01:31:00.038Z,53.50
2017-11-09T01:33:28.229Z,53.37
2017-11-09T01:35:56.568Z,53.60
2017-11-09T01:38:24.871Z,53.57
2017-11-09T01:40:53.193Z,55.47
2017-11-09T01:43:21.968Z,54.70
2017-11-09T01:45:51.380Z,51.40
2017-11-09T01:48:19.675Z,53.03
2017-11-09T01:50:48.019Z,52.07
2017-11-09T01:53:16.328Z,53.07
2017-11-09T01:55:44.619Z,53.20
2017-11-09T01:58:13.736Z,53.80
2017-11-09T02:00:42.023Z,51.07
2017-11-09T02:03:10.312Z,52.17
2017-11-09T02:05:39.993Z,49.00
2017-11-09T02:08:08.167Z,53.00
2017-11-09T02:10:36.460Z,50.27
2017-11-09T02:13:04.799Z,51.80
2017-11-09T02:15:33.091Z,49.30
2017-11-09T02:18:01.412Z,52.40
2017-11-09T02:20:29.755Z,49.07
2017-11-09T02:22:58.043Z,51.03
2017-11-09T02:25:27.096Z,51.87
2017-11-09T02:27:56.832Z,51.70
2017-11-09T02:30:25.755Z,55.17
2017-11-09T02:32:54.067Z,49.80
2017-11-09T02:35:22.395Z,50.83
2017-11-09T02:37:52.041Z,49.30
2017-11-09T02:40:20.212Z,48.67
2017-11-09T02:42:48.543Z,50.50
2017-11-09T02:45:17.604Z,45.23
2017-11-09T02:47:45.892Z,46.90
2017-11-09T02:50:14.215Z,48.73
2017-11-09T02:52:44.015Z,48.07
2017-11-09T02:55:13.085Z,47.53
2017-11-09T02:57:41.434Z,49.53
2017-11-09T03:00:10.495Z,47.30
2017-11-09T03:02:38.790Z,48.17
2017-11-09T03:05:07.156Z,48.80
2017-11-09T03:07:35.451Z,50.80
2017-11-09T03:10:03.741Z,52.13
2017-11-09T03:12:32.075Z,47.80
2017-11-09T03:15:00.759Z,49.43
2017-11-09T03:17:29.063Z,49.50
2017-11-09T03:19:57.403Z,49.33
2017-11-09T03:22:25.701Z,48.03
2017-11-09T03:24:54.037Z,49.20
2017-11-09T03:27:24.682Z,49.33
2017-11-09T03:29:52.859Z,49.53
2017-11-09T03:32:21.539Z,49.70
2017-11-09T03:34:49.883Z,49.57
2017-11-09T03:37:18.159Z,49.00
2017-11-09T03:39:47.206Z,48.30
2017-11-09T03:42:16.339Z,46.07
2017-11-09T03:44:44.623Z,51.07
2017-11-09T03:47:12.920Z,49.17
2017-11-09T03:49:42.604Z,49.03
2017-11-09T03:52:11.900Z,49.73
2017-11-09T03:54:40.573Z,50.30
2017-11-09T03:57:08.963Z,49.37
2017-11-09T03:59:37.247Z,50.00
2017-11-09T04:02:05.552Z,51.20
2017-11-09T04:04:33.915Z,51.23
2017-11-09T04:07:03.550Z,48.07
2017-11-09T04:09:32.480Z,48.03
2017-11-09T04:12:01.597Z,52.60
2017-11-09T04:14:29.881Z,48.03
2017-11-09T04:16:58.937Z,47.27
2017-11-09T04:19:28.063Z,51.37
2017-11-09T04:21:56.355Z,50.50
2017-11-09T04:24:24.638Z,50.40
2017-11-09T04:26:52.971Z,48.37
2017-11-09T04:29:22.401Z,50.70
2017-11-09T04:31:50.708Z,45.47
2017-11-09T04:34:19.057Z,49.63
2017-11-09T04:36:48.108Z,45.77
2017-11-09T04:39:17.531Z,47.40
2017-11-09T04:41:45.871Z,46.17
2017-11-09T04:44:14.927Z,47.10
2017-11-09T04:46:44.584Z,47.20
2017-11-09T04:49:13.203Z,48.60
2017-11-09T04:51:41.520Z,50.43
2017-11-09T04:54:09.809Z,49.37
2017-11-09T04:56:38.154Z,49.77
2017-11-09T04:59:06.442Z,51.10
2017-11-09T05:01:34.744Z,48.17
2017-11-09T05:04:04.232Z,50.87
2017-11-09T05:06:32.515Z,51.00
2017-11-09T05:09:02.321Z,53.30
2017-11-09T05:11:30.659Z,48.23
2017-11-09T05:13:59.713Z,51.30
2017-11-09T05:16:28.404Z,51.30
2017-11-09T05:18:56.736Z,50.07
2017-11-09T05:21:25.802Z,54.93
2017-11-09T05:23:55.587Z,50.97
2017-11-09T05:26:24.348Z,53.30
2017-11-09T05:28:52.900Z,52.70
2017-11-09T05:31:21.205Z,51.57
2017-11-09T05:33:49.639Z,53.67
2017-11-09T05:36:17.928Z,55.43
2017-11-09T05:38:46.212Z,49.90
2017-11-09T05:41:15.693Z,53.30
2017-11-09T05:43:46.002Z,47.90
2017-11-09T05:46:14.288Z,50.00
2017-11-09T05:48:42.644Z,51.87
2017-11-09T05:51:11.932Z,50.83
2017-11-09T05:53:40.608Z,53.50
2017-11-09T05:56:08.961Z,50.73
2017-11-09T05:58:37.253Z,53.80
2017-11-09T06:01:05.543Z,52.10
2017-11-09T06:03:33.877Z,53.43
2017-11-09T06:06:02.563Z,49.13
2017-11-09T06:08:30.847Z,51.50
2017-11-09T06:10:59.194Z,53.27
2017-11-09T06:13:27.482Z,57.03
2017-11-09T06:15:55.773Z,51.73
2017-11-09T06:18:25.313Z,54.13
2017-11-09T06:20:53.616Z,53.70
2017-11-09T06:23:21.910Z,51.83
2017-11-09T06:25:50.239Z,50.07
2017-11-09T06:28:18.536Z,51.63
2017-11-09T06:30:46.826Z,55.57
2017-11-09T06:33:15.175Z,54.37
2017-11-09T06:35:44.824Z,54.13
2017-11-09T06:38:13.768Z,54.23
2017-11-09T06:40:42.107Z,49.87
2017-11-09T06:43:11.180Z,52.70
2017-11-09T06:45:39.477Z,50.87
2017-11-09T06:48:08.581Z,51.13
2017-11-09T06:50:36.873Z,49.00
2017-11-09T06:53:06.676Z,51.57
2017-11-09T06:55:35.387Z,53.57
2017-11-09T06:58:03.679Z,50.50
2017-11-09T07:00:31.966Z,53.77
2017-11-09T07:03:00.323Z,51.93
2017-11-09T07:05:29.389Z,51.40
2017-11-09T07:07:57.677Z,48.13
2017-11-09T07:10:26.016Z,50.07
2017-11-09T07:12:54.316Z,50.70
2017-11-09T07:15:22.620Z,49.10
2017-11-09T07:17:50.996Z,48.97
2017-11-09T07:20:19.279Z,52.73
2017-11-09T07:22:47.960Z,49.63
2017-11-09T07:25:18.136Z,52.00
2017-11-09T07:27:46.425Z,50.10
2017-11-09T07:30:15.480Z,51.60
2017-11-09T07:32:44.612Z,49.83
2017-11-09T07:35:12.895Z,53.20
2017-11-09T07:37:42.101Z,51.53
2017-11-09T07:40:10.833Z,52.00
2017-11-09T07:42:39.125Z,50.60
2017-11-09T07:45:07.409Z,50.93
2017-11-09T07:47:37.081Z,49.13
2017-11-09T07:50:05.360Z,49.73
2017-11-09T07:52:33.649Z,50.97
2017-11-09T07:55:02.416Z,51.70
2017-11-09T07:57:30.705Z,50.07
2017-11-09T07:59:59.009Z,51.43
2017-11-09T08:02:28.109Z,49.37
2017-11-09T08:04:56.400Z,50.90
2017-11-09T08:07:25.084Z,48.20
2017-11-09T08:09:54.207Z,47.23
2017-11-09T08:12:23.273Z,48.67
2017-11-09T08:14:52.323Z,47.20
2017-11-09T08:17:20.680Z,51.77
2017-11-09T08:19:48.962Z,50.30
2017-11-09T08:22:18.613Z,47.93
2017-11-09T08:24:49.500Z,46.53
2017-11-09T08:27:21.003Z,47.67
2017-11-09T08:29:53.445Z,49.90
2017-11-09T08:32:25.168Z,44.20
2017-11-09T08:34:55.384Z,46.57
2017-11-09T08:37:24.075Z,47.83
2017-11-09T08:39:53.520Z,50.37
2017-11-09T08:42:22.649Z,49.50
2017-11-09T08:44:50.947Z,46.73
2017-11-09T08:47:20.743Z,47.50
2017-11-09T08:49:49.084Z,47.10
2017-11-09T08:52:17.389Z,49.10
2017-11-09T08:54:45.680Z,44.23
2017-11-09T08:57:14.012Z,45.40
2017-11-09T08:59:42.303Z,42.47
2017-11-09T09:02:10.587Z,46.07
2017-11-09T09:04:39.696Z,45.07
2017-11-09T09:07:08.749Z,45.33
2017-11-09T09:09:37.055Z,43.67
2017-11-09T09:12:05.391Z,44.23
2017-11-09T09:14:33.685Z,42.57
2017-11-09T09:17:01.977Z,44.03
2017-11-09T09:19:30.703Z,39.40
2017-11-09T09:25:01.999Z,36.83
2017-11-09T09:27:31.141Z,41.00
2017-11-09T09:30:02.477Z,36.47
2017-11-09T09:32:36.437Z,39.07
2017-11-09T09:35:11.299Z,41.73
2017-11-09T09:37:43.636Z,39.67
2017-11-09T09:40:15.615Z,40.47
2017-11-09T09:42:44.904Z,40.57
2017-11-09T09:45:13.196Z,38.93
2017-11-09T09:47:41.554Z,39.27
2017-11-09T09:50:09.843Z,38.83
2017-11-09T09:52:38.140Z,36.80
2017-11-09T09:55:07.267Z,38.47
2017-11-09T09:57:35.561Z,39.77
2017-11-09T10:00:03.846Z,39.43
2017-11-09T10:02:32.167Z,40.10
2017-11-09T10:05:00.992Z,41.53
2017-11-09T10:07:29.681Z,41.40
2017-11-09T10:09:58.787Z,39.30
2017-11-09T10:12:27.904Z,42.10
2017-11-09T10:14:56.191Z,40.90
2017-11-09T10:17:24.529Z,39.50
2017-11-09T10:19:53.588Z,39.30
2017-11-09T10:22:22.262Z,39.60
2017-11-09T10:24:50.603Z,41.40
2017-11-09T10:27:18.896Z,41.47
2017-11-09T10:29:47.189Z,38.73
2017-11-09T10:32:15.515Z,43.53
2017-11-09T10:34:44.952Z,42.10
2017-11-09T10:37:14.011Z,43.77
2017-11-09T10:39:43.700Z,39.07
2017-11-09T10:42:11.875Z,41.20
2017-11-09T10:44:41.663Z,46.30
2017-11-09T10:47:10.010Z,43.30
2017-11-09T10:49:38.296Z,46.00
2017-11-09T10:52:06.582Z,46.60
2017-11-09T10:54:35.676Z,43.53
2017-11-09T10:57:03.976Z,45.10
2017-11-09T10:59:32.300Z,44.03
2017-11-09T11:02:00.648Z,41.20
2017-11-09T11:04:28.931Z,44.20
2017-11-09T11:06:57.990Z,43.07
2017-11-09T11:09:27.096Z,45.30
2017-11-09T11:11:55.383Z,43.47
2017-11-09T11:14:23.668Z,42.80
2017-11-09T11:16:52.782Z,42.53
2017-11-09T11:19:21.068Z,41.93
2017-11-09T11:21:50.147Z,43.60
2017-11-09T11:24:19.648Z,43.73
2017-11-09T11:26:47.939Z,45.10
2017-11-09T11:29:16.223Z,45.10
2017-11-09T11:31:45.349Z,42.07
2017-11-09T11:34:13.636Z,42.17
2017-11-09T11:36:42.696Z,40.67
2017-11-09T11:39:12.399Z,37.33
2017-11-09T11:41:41.329Z,37.87
2017-11-09T11:44:10.992Z,38.97
2017-11-09T11:46:40.212Z,38.30
2017-11-09T11:49:08.577Z,38.23
2017-11-09T11:51:36.860Z,35.90
2017-11-09T11:54:05.202Z,37.87
2017-11-09T11:56:33.496Z,38.83
2017-11-09T11:59:01.803Z,40.80
2017-11-09T12:01:30.923Z,37.70
2017-11-09T12:03:59.215Z,37.80
2017-11-09T12:06:27.503Z,36.80
2017-11-09T12:08:55.847Z,37.50
2017-11-09T12:11:24.133Z,36.77
2017-11-09T12:13:52.422Z,36.50
2017-11-09T12:16:21.528Z,39.20
2017-11-09T12:18:50.581Z,35.67
2017-11-09T12:21:19.631Z,36.13
2017-11-09T12:23:47.976Z,37.73
2017-11-09T12:26:16.264Z,35.80
2017-11-09T12:28:44.552Z,38.07
2017-11-09T12:31:14.020Z,36.13
2017-11-09T12:33:42.308Z,38.00
2017-11-09T12:36:10.587Z,40.27
2017-11-09T12:38:39.711Z,37.07
2017-11-09T12:41:08.767Z,39.03
2017-11-09T12:43:37.050Z,42.17
2017-11-09T12:46:05.452Z,37.67
2017-11-09T12:48:33.768Z,41.50
2017-11-09T12:51:02.056Z,39.10
2017-11-09T12:53:31.167Z,38.40
2017-11-09T12:56:00.223Z,37.30
2017-11-09T12:58:29.286Z,37.73
2017-11-09T13:00:58.752Z,39.77
2017-11-09T13:03:27.036Z,37.13
2017-11-09T13:05:56.087Z,41.70
2017-11-09T13:08:24.457Z,39.67
2017-11-09T13:10:53.519Z,41.10
2017-11-09T13:13:21.803Z,39.57
2017-11-09T13:15:50.164Z,40.37
2017-11-09T13:18:18.452Z,39.93
2017-11-09T13:20:46.741Z,39.77
2017-11-09T13:23:15.567Z,39.20
2017-11-09T13:25:45.004Z,41.67
2017-11-09T13:28:13.287Z,41.70
2017-11-09T13:30:41.625Z,42.90
2017-11-09T13:33:10.677Z,41.53
2017-11-09T13:35:38.960Z,38.40
2017-11-09T13:38:09.226Z,40.13
2017-11-09T13:40:38.275Z,39.40
2017-11-09T13:43:11.176Z,43.47
2017-11-09T13:45:41.256Z,40.20
2017-11-09T13:48:09.787Z,41.33
2017-11-09T13:50:38.531Z,37.50
2017-11-09T13:53:07.580Z,42.77
2017-11-09T13:55:35.863Z,41.40
2017-11-09T13:58:04.200Z,39.30
2017-11-09T14:00:34.375Z,40.30
2017-11-09T14:03:02.670Z,38.97
2017-11-09T14:05:32.513Z,40.77
2017-11-09T14:08:01.572Z,38.93
2017-11-09T14:10:29.863Z,40.73
2017-11-09T14:12:59.343Z,40.27
2017-11-09T14:15:28.450Z,40.97
2017-11-09T14:17:56.735Z,38.97
2017-11-09T14:20:26.241Z,38.17
2017-11-09T14:22:54.910Z,39.37
2017-11-09T14:25:23.202Z,41.50
2017-11-09T14:27:51.547Z,38.10
2017-11-09T14:30:19.831Z,36.37
2017-11-09T14:32:49.476Z,37.03
2017-11-09T14:35:18.456Z,40.00
2017-11-09T14:37:46.744Z,40.30
2017-11-09T14:40:15.027Z,39.40
2017-11-09T14:42:44.139Z,39.77
2017-11-09T14:45:12.433Z,38.20
2017-11-09T14:47:41.125Z,37.83
2017-11-09T14:50:10.980Z,37.67
2017-11-09T14:52:39.276Z,36.87
2017-11-09T14:55:07.571Z,36.67
2017-11-09T14:57:36.681Z,36.80
2017-11-09T15:00:05.736Z,38.50
2017-11-09T15:02:34.029Z,40.30
2017-11-09T15:05:03.505Z,39.00
2017-11-09T15:07:32.932Z,38.57
2017-11-09T15:10:01.215Z,40.67
2017-11-09T15:12:29.562Z,39.87
2017-11-09T15:14:58.252Z,37.17
2017-11-09T15:17:28.045Z,37.67
2017-11-09T15:19:56.393Z,37.17
2017-11-09T15:22:24.671Z,39.40
2017-11-09T15:24:52.960Z,39.40
2017-11-09T15:27:22.505Z,42.33
2017-11-09T15:29:50.796Z,39.17
2017-11-09T15:32:19.081Z,39.00
2017-11-09T15:34:50.365Z,39.53
2017-11-09T15:37:20.163Z,37.40
2017-11-09T15:39:49.217Z,39.03
2017-11-09T15:42:17.553Z,38.30
2017-11-09T15:44:45.847Z,40.20
2017-11-09T15:47:14.904Z,41.00
2017-11-09T15:49:44.592Z,40.77
2017-11-09T15:52:13.156Z,37.87
2017-11-09T15:54:42.794Z,38.70
2017-11-09T15:57:11.048Z,38.50
2017-11-09T15:59:39.327Z,40.90
2017-11-09T16:02:07.625Z,41.80
2017-11-09T16:04:37.319Z,41.87
2017-11-09T16:07:22.483Z,41.13
2017-11-09T16:09:50.823Z,41.17
2017-11-09T16:12:20.240Z,40.10
2017-11-09T16:14:48.737Z,38.87
2017-11-09T16:20:14.056Z,41.20
2017-11-09T16:22:42.459Z,40.33
2017-11-09T16:25:11.643Z,43.40
2017-11-09T16:27:40.727Z,39.90
2017-11-09T16:30:09.935Z,38.87
2017-11-09T16:32:38.805Z,41.00
2017-11-09T16:35:07.083Z,43.13
2017-11-09T16:37:35.431Z,40.43
2017-11-09T16:40:03.779Z,39.27
2017-11-09T16:42:36.977Z,41.73
2017-11-09T16:45:06.088Z,42.73
2017-11-09T16:47:36.130Z,41.67
2017-11-09T16:50:04.340Z,43.27
2017-11-09T16:52:40.831Z,43.30
2017-11-09T16:55:10.623Z,42.90
2017-11-09T16:57:41.904Z,39.50
2017-11-09T17:00:10.988Z,41.37
2017-11-09T17:02:40.128Z,39.33
2017-11-09T17:05:08.597Z,41.40
2017-11-09T17:07:38.222Z,39.47
2017-11-09T17:10:07.178Z,39.47
2017-11-09T17:12:37.076Z,40.10
2017-11-09T17:15:10.524Z,43.17
2017-11-09T17:17:40.322Z,38.77
2017-11-09T17:20:22.011Z,39.50
2017-11-09T17:22:51.887Z,40.33
2017-11-09T17:25:20.191Z,38.00
2017-11-09T17:27:50.027Z,39.20
2017-11-09T17:30:19.816Z,40.80
2017-11-09T17:32:48.156Z,38.93
2017-11-09T17:35:17.862Z,39.53
2017-11-09T17:37:47.405Z,39.67
2017-11-09T17:40:17.630Z,39.23
2017-11-09T17:42:54.355Z,38.07
2017-11-09T17:45:22.956Z,39.47
2017-11-09T17:47:51.283Z,39.23
2017-11-09T17:50:20.422Z,40.93
2017-11-09T17:52:49.490Z,37.20
2017-11-09T17:55:18.543Z,38.20
2017-11-09T17:57:47.787Z,36.27
2017-11-09T18:00:17.414Z,35.57
2017-11-09T18:02:45.580Z,36.33
2017-11-09T18:05:14.288Z,38.03
2017-11-09T18:07:44.083Z,35.00
2017-11-09T18:10:12.373Z,36.50
2017-11-09T18:12:41.414Z,36.40
2017-11-09T18:15:11.050Z,38.70
2017-11-09T18:17:40.367Z,39.03
2017-11-09T18:20:08.830Z,37.47
2017-11-09T18:22:37.888Z,36.30
2017-11-09T18:25:06.965Z,36.43
2017-11-09T18:27:36.802Z,36.83
2017-11-09T18:30:06.267Z,35.30
2017-11-09T18:32:34.564Z,35.80
2017-11-09T18:35:02.969Z,34.37
2017-11-09T18:37:32.436Z,36.80
2017-11-09T18:40:00.763Z,36.60
2017-11-09T18:42:29.121Z,34.30
2017-11-09T18:44:57.532Z,35.80
2017-11-09T18:47:26.948Z,35.67
2017-11-09T18:49:55.275Z,35.83
2017-11-09T18:52:23.567Z,33.37
2017-11-09T18:54:53.197Z,37.00
2017-11-09T18:57:21.836Z,32.77
2017-11-09T18:59:50.135Z,36.07
2017-11-09T19:02:18.424Z,36.40
2017-11-09T19:04:47.521Z,34.97
2017-11-09T19:07:16.579Z,34.50
2017-11-09T19:09:44.943Z,34.63
2017-11-09T19:12:14.070Z,34.90
2017-11-09T19:14:42.360Z,34.57
2017-11-09T19:17:10.691Z,36.00
2017-11-09T19:19:39.104Z,34.13
2017-11-09T19:22:07.520Z,33.73
2017-11-09T19:24:36.689Z,37.53
2017-11-09T19:27:05.032Z,37.13
2017-11-09T19:29:34.199Z,37.17
2017-11-09T19:32:02.889Z,39.13
2017-11-09T19:34:31.252Z,38.40
2017-11-09T19:37:00.312Z,38.00
2017-11-09T19:39:29.785Z,39.90
2017-11-09T19:41:58.243Z,40.40
2017-11-09T19:44:26.526Z,40.10
2017-11-09T19:46:55.584Z,42.30
2017-11-09T19:49:24.059Z,38.20
2017-11-09T19:51:53.116Z,39.83
2017-11-09T19:54:21.812Z,38.50
2017-11-09T19:56:50.144Z,40.20
2017-11-09T19:59:18.511Z,36.37
2017-11-09T20:01:46.797Z,40.77
2017-11-09T20:04:15.140Z,39.03
2017-11-09T20:06:43.415Z,39.30
2017-11-09T20:09:11.694Z,39.17
2017-11-09T20:11:40.815Z,39.60
2017-11-09T20:14:09.854Z,40.60
2017-11-09T20:16:39.491Z,39.57
2017-11-09T20:19:09.095Z,41.37
2017-11-09T20:21:37.649Z,38.70
2017-11-09T20:24:05.936Z,39.73
2017-11-09T20:26:34.279Z,40.70
2017-11-09T20:29:02.587Z,38.30
2017-11-09T20:31:32.221Z,41.97
2017-11-09T20:34:00.829Z,39.53
2017-11-09T20:36:30.476Z,44.00
2017-11-09T20:38:59.781Z,43.20
2017-11-09T20:41:28.152Z,40.73
2017-11-09T20:43:56.422Z,41.17
2017-11-09T20:46:26.224Z,37.93
2017-11-09T20:48:54.552Z,41.67
2017-11-09T20:51:23.616Z,43.50
2017-11-09T20:53:52.684Z,40.27
2017-11-09T20:56:21.051Z,42.27
2017-11-09T20:58:49.346Z,37.17
2017-11-09T21:01:17.629Z,41.83
2017-11-09T21:03:45.966Z,40.33
2017-11-09T21:06:14.247Z,40.60
2017-11-09T21:08:43.291Z,38.27
2017-11-09T21:11:11.624Z,37.67
2017-11-09T21:13:41.403Z,38.03
2017-11-09T21:16:09.687Z,36.37
2017-11-09T21:18:39.515Z,38.80
2017-11-09T21:21:08.572Z,36.13
2017-11-09T21:23:37.988Z,36.47
2017-11-09T21:26:06.337Z,34.57
2017-11-09T21:28:34.621Z,32.57
2017-11-09T21:31:02.899Z,36.33
2017-11-09T21:33:31.230Z,33.90
2017-11-09T21:36:00.651Z,34.20
2017-11-09T21:38:28.932Z,33.87
2017-11-09T21:40:57.271Z,32.07
2017-11-09T21:43:25.558Z,34.20
2017-11-09T21:45:55.210Z,32.90
2017-11-09T21:48:23.831Z,34.00
2017-11-09T21:50:52.112Z,35.07
2017-11-09T21:53:20.393Z,32.40
2017-11-09T21:55:49.485Z,35.53
2017-11-09T21:58:17.765Z,32.67
2017-11-09T22:00:46.044Z,32.50
2017-11-09T22:03:14.400Z,32.80
2017-11-09T22:05:43.823Z,32.63
2017-11-09T22:08:12.109Z,32.40
2017-11-09T22:10:41.200Z,31.23
2017-11-09T22:13:11.000Z,33.23
2017-11-09T22:15:39.276Z,31.23
2017-11-09T22:18:08.735Z,31.40
2017-11-09T22:20:37.015Z,32.33
2017-11-09T22:23:05.300Z,34.23
2017-11-09T22:25:34.416Z,30.70
2017-11-09T22:28:03.470Z,31.77
2017-11-09T22:30:31.764Z,29.63
2017-11-09T22:33:00.112Z,31.10
2017-11-09T22:35:29.769Z,33.70
2017-11-09T22:37:58.319Z,32.77
2017-11-09T22:40:27.431Z,30.73
2017-11-09T22:42:55.714Z,32.30
2017-11-09T22:45:25.510Z,32.10
2017-11-09T22:47:53.845Z,31.33
2017-11-09T22:50:22.120Z,26.77
2017-11-09T22:52:50.413Z,30.07
2017-11-09T22:55:19.131Z,30.23
2017-11-09T22:57:47.429Z,27.90
2017-11-09T23:00:16.480Z,28.63
2017-11-09T23:02:44.807Z,25.33
2017-11-09T23:05:13.097Z,26.10
2017-11-09T23:07:42.738Z,27.20
2017-11-09T23:10:11.344Z,26.97
2017-11-09T23:12:40.770Z,28.33
2017-11-09T23:15:09.817Z,26.87
2017-11-09T23:17:38.923Z,29.40
2017-11-09T23:20:07.207Z,28.27
2017-11-09T23:22:36.841Z,28.93
2017-11-09T23:25:05.097Z,29.60
2017-11-09T23:27:33.381Z,32.13
2017-11-09T23:30:01.686Z,31.57
2017-11-09T23:32:30.034Z,31.27
2017-11-09T23:34:58.319Z,30.73
2017-11-09T23:37:26.604Z,31.83
2017-11-09T23:39:54.932Z,31.23
2017-11-09T23:42:23.215Z,30.90
2017-11-09T23:44:51.496Z,30.00
2017-11-09T23:47:21.335Z,31.17
2017-11-09T23:49:49.623Z,32.67
2017-11-09T23:52:17.909Z,28.47
2017-11-09T23:54:47.005Z,32.53
2017-11-09T23:57:16.047Z,27.87
2017-11-09T23:59:44.725Z,31.63
